Tiempo atmosférico en la estación meteorológica de Barbadillo, Salamanca (817 m.)



Fecha
DESCASC
Temp. máxima en grados centígrados (hora)
DESCASC
Temp. mínima en grados centígrados (hora)
DESCASC
Temp. media en grados centígrados
DESCASC
Racha de viento máxima en m/sg (hora)
DESCASC
Velocidad máxima media en intervalos de 10 minutos(hora)
DESCASC
Precipitaciones diarias en mm
DESCASC
Precipitaciones de 00:00 a 06:00 en mm
DESCASC
Precipitaciones de 06:00 a 12:00 en mm
DESCASC
Precipitaciones de 12:00 a 18:00 en mm
DESCASC
Precipitaciones de 18:00 a 24:00 en mm
DESCASC
19-02-2019 12 (15:20) 2.7 (23:30) 7.4 7.78 (16:00) 3.89 (15:40) 0.2 0.2 0 0 0
18-02-2019 13.7 (15:00) 1.9 (05:20) 7.8 6.94 (17:50) 4.72 (17:50) 0 0 0 0 0
17-02-2019 15.5 (15:50) -3.3 (-00:0) 6.1 7.78 (14:50) 4.72 (17:10) 0 0 0 0 0
16-02-2019 17.9 (16:00) -3.2 (-00:0) 7.3 5.28 (16:50) 3.33 (16:50) 0 0 0 0 0
15-02-2019 16.4 (16:00) -3.4 (-00:0) 6.5 6.39 (12:50) 4.17 (11:30) 0 0 0 0 0
14-02-2019 17.9 (16:50) -3.3 (-00:0) 7.3 3.89 (13:10) 2.78 (18:40) 0 0 0 0 0
13-02-2019 15.4 (16:20) -3.9 (-00:0) 5.7 5.28 (15:00) 2.22 (15:00) 0 0 0 0 0
12-02-2019 12.4 (17:10) -1.8 (-00:0) 5.3 6.39 (03:30) 4.44 (03:30) 0 0 0 0 0
11-02-2019 10.4 (16:00) -1.2 (-00:0) 4.6 13.89 (13:50) 7.78 (11:00) 0 0 0 0 0
10-02-2019 11.1 (14:10) 4.5 (00:00) 7.8 13.33 (14:30) 8.61 (14:30) 0 0 0 0 0
09-02-2019 12.5 (16:20) 2.7 (00:00) 7.6 9.72 (16:50) 6.11 (16:50) 0 0 0 0 0
08-02-2019 12.5 (16:30) -3.6 (-00:0) 4.5 8.06 (16:30) 5 (15:50) 0 0 0 0 0
07-02-2019 12.3 (15:50) -2 (-00:0) 5.2 5.56 (16:00) 3.61 (16:00) 0 0 0 0 0
06-02-2019 15.2 (16:10) -2.5 (08:10) 6.3 7.78 (14:50) 5 (14:50) 0 0 0 0 0
05-02-2019 14.9 (16:20) -3.1 (08:00) 5.9 3.61 (13:40) 2.5 (12:30) 0 0 0 0 0
04-02-2019 11.7 (17:00) -5.8 (-00:0) 2.9 4.17 (15:30) 2.5 (16:00) 0 0 0 0 0
03-02-2019 5.8 (16:10) -5.5 (-00:0) 0.2 7.5 (14:40) 4.72 (14:50) 0 0 0 0 0
02-02-2019 6.5 (16:50) -0.8 (-00:0) 2.8 13.33 (00:20) 7.22 (00:20) 0 0 0 0 0
01-02-2019 8.7 (00:00) 1.4 (00:00) 5 18.61 (15:40) 10.83 (18:00) 8 0.4 2.2 5.4 0
31-01-2019 11.1 (16:00) 7.1 (00:00) 9.1 15.56 (16:10) 9.72 (16:10) 7 0.6 0.4 1.6 4.4
30-01-2019 8.2 (23:40) 1.4 (00:00) 4.8 13.61 (21:50) 7.78 (22:50) 1.6 0 0 0 1.6
29-01-2019 8.2 (17:00) 2 (00:00) 5.1 14.44 (15:40) 8.61 (15:40) 0 0 0 0 0
28-01-2019 10 (14:10) 0.6 (00:00) 5.3 15.28 (12:50) 8.33 (12:50) 0 0 0 0 0
27-01-2019 8.5 (15:50) 2.2 (00:00) 5.4 10.56 (16:30) 5.83 (16:30) 0 0 0 0 0
26-01-2019 14.7 (16:20) -4.2 (-00:0) 5.3 5.83 (16:40) 4.17 (17:00) 0 0 0 0 0
25-01-2019 13 (15:50) -2.3 (-00:0) 5.4 6.39 (13:10) 3.61 (12:50) 0 0 0 0 0
24-01-2019 15.4 (16:30) 2.1 (00:00) 8.7 10.56 (16:50) 6.11 (12:10) 0 0 0 0 0

Gráficas

Temp. máximas Temp. mínimas Temp. medias Precipitaciones Rachas de viento máximas Velocidades máximas media en intervalos de 10 minutos

Datos horarios

Fecha y hora oficial Temperatura (ºC) Velocidad del viento (km/h) Dirección del viento Racha (km/h) Dirección de racha Precipitación (mm) Presión (hPa) Tendencia (hPa) Humedad (%)
2019-02-22 23:00:00 1.8 2 Sudeste 6 Sur 0 -- -- 77
2019-02-22 22:00:00 3 5 Sur 10 Sur 0 -- -- 72
2019-02-22 21:00:00 5.2 8 Sur 10 Sur 0 -- -- 64
2019-02-22 20:00:00 8.5 6 Sur 9 Sur 0 -- -- 55
2019-02-22 19:00:00 14.4 5 Sur 15 Sur 0 -- -- 37
2019-02-22 18:00:00 16.7 10 Sur 21 Sur 0 -- -- 28
2019-02-22 17:00:00 17.6 12 Sudoeste 22 Sur 0 -- -- 27
2019-02-22 16:00:00 17.9 15 Sur 24 Sur 0 -- -- 28
2019-02-22 15:00:00 17.2 7 Norte 18 Noroeste 0 -- -- 30
2019-02-22 14:00:00 17 5 Este 14 Sur 0 -- -- 32
2019-02-22 13:00:00 15.5 6 Nordeste 13 Nordeste 0 -- -- 33
2019-02-22 12:00:00 14.1 6 Nordeste 10 Nordeste 0 -- -- 36
2019-02-22 11:00:00 10.5 0 Calma 5 Nordeste 0 -- -- 52
2019-02-22 10:00:00 3.7 3 Sudeste 8 Sur 0 -- -- 81
2019-02-22 09:00:00 -1.5 5 Sudeste 8 Sur 0 -- -- 92
2019-02-22 08:00:00 -2.8 5 Sur 9 Sur 0 -- -- 91
2019-02-22 07:00:00 -2.7 6 Sur 9 Sur 0 -- -- 90
2019-02-22 06:00:00 -2.5 4 Sur 8 Sur 0 -- -- 89
2019-02-22 05:00:00 -2 5 Sur 8 Sur 0 -- -- 90
2019-02-22 04:00:00 -1.3 5 Sudeste 12 Sur 0 -- -- 90
2019-02-22 03:00:00 -1.1 5 Sur 7 Sur 0 -- -- 88
2019-02-22 02:00:00 -0.7 4 Sur 6 Sur 0 -- -- 86
2019-02-22 01:00:00 0.1 4 Sur 8 Sur 0 -- -- 87
2019-02-22 00:00:00 1 0 Calma 5 Sudoeste 0 -- -- 83
2019-02-21 23:00:00 2.1 4 Sur 6 Sudoeste 0 -- -- 80
2019-02-21 22:00:00 3.6 3 Sudeste 9 Sur 0 -- -- 75
2019-02-21 21:00:00 5.8 6 Sur 9 Sur 0 -- -- 69
2019-02-21 20:00:00 8.1 7 Sur 9 Sur 0 -- -- 62
2019-02-21 19:00:00 12.4 5 Sur 17 Sudoeste 0 -- -- 48
2019-02-21 18:00:00 15.6 10 Sudoeste 23 Sudoeste 0 -- -- 38
2019-02-21 17:00:00 16.3 12 Sur 23 Sur 0 -- -- 37
2019-02-21 16:00:00 16.9 12 Sudoeste 24 Sudoeste 0 -- -- 34
2019-02-21 15:00:00 16.4 9 Sudoeste 26 Sur 0 -- -- 38
2019-02-21 14:00:00 15.6 10 Sur 23 Sur 0 -- -- 39
2019-02-21 13:00:00 15.1 12 Sudeste 21 Sudeste 0 -- -- 45
2019-02-21 12:00:00 13.2 8 Sudeste 15 Sudeste 0 -- -- 54
2019-02-21 11:00:00 9 4 Nordeste 8 Nordeste 0 -- -- 72
2019-02-21 10:00:00 3.2 2 Norte 6 Este 0 -- -- 96
2019-02-21 09:00:00 -1.8 3 Sur 5 Sudoeste 0 -- -- 95
2019-02-21 08:00:00 -2.2 4 Sur 8 Este 0 -- -- 94
2019-02-21 07:00:00 -2.3 4 Sudeste 8 Sur 0 -- -- 93
2019-02-21 06:00:00 -2 2 Sur 5 Sur 0 -- -- 93
2019-02-21 05:00:00 -1.6 5 Sur 9 Sur 0 -- -- 94
2019-02-21 04:00:00 -1.8 6 Sur 8 Sur 0 -- -- 92
2019-02-21 03:00:00 -1.4 2 Este 7 Sur 0 -- -- 92
2019-02-21 02:00:00 -1.4 5 Sur 7 Sur 0 -- -- 91
2019-02-21 01:00:00 -0.9 3 Sudeste 6 Sur 0 -- -- 88
2019-02-21 00:00:00 -0.3 3 Sur 5 Sur 0 -- -- 88
2019-02-20 23:00:00 0.7 4 Sur 5 Sur 0 -- -- 86
2019-02-20 22:00:00 2.3 4 Sur 7 Sur 0 -- -- 84
2019-02-20 21:00:00 4.1 4 Sur 8 Sur 0 -- -- 80
2019-02-20 20:00:00 7.1 4 Sur 7 Sudoeste 0 -- -- 71
2019-02-20 19:00:00 10.5 6 Sudoeste 16 Sudoeste 0 -- -- 61
2019-02-20 18:00:00 12.9 7 Oeste 21 Sur 0 -- -- 54
2019-02-20 17:00:00 13.9 13 Oeste 22 Sudoeste 0 -- -- 51
2019-02-20 16:00:00 14 9 Oeste 23 Sudoeste 0 -- -- 51
2019-02-20 15:00:00 13.6 13 Sudoeste 24 Sudoeste 0 -- -- 52
2019-02-20 14:00:00 12.1 8 Sur 19 Oeste 0 -- -- 63
2019-02-20 13:00:00 12.1 11 Oeste 23 Oeste 0 -- -- 70
2019-02-20 12:00:00 10 5 Noroeste 12 Sur 0 -- -- 80
2019-02-20 11:00:00 8.4 5 Sur 13 Sur 0 -- -- 93
2019-02-20 10:00:00 3.9 0 Calma 4 Norte 0 -- -- 99
2019-02-20 09:00:00 -0.7 0 Calma 5 Sur 0 -- -- 96
2019-02-20 08:00:00 -1.3 3 Sur 7 Sur 0 -- -- 95
2019-02-20 07:00:00 -1.2 5 Sur 7 Sur 0 -- -- 95
2019-02-20 06:00:00 -0.9 5 Sur 6 Sur 0 -- -- 93
2019-02-20 05:00:00 0.2 2 Sudeste 5 Sur 0 -- -- 93
2019-02-20 04:00:00 1.4 2 Sudeste 6 Noroeste 0 -- -- 94
2019-02-20 03:00:00 1.5 0 Calma 8 Sur 0 -- -- 95
2019-02-20 02:00:00 1.1 2 Sur 5 Sur 0 -- -- 93
2019-02-20 01:00:00 2 4 Sur 6 Sur 0 -- -- 92
2019-02-20 00:00:00 2.9 6 Sur 9 Sur 0 -- -- 92
2019-02-19 23:00:00 3 5 Sur 11 Sudoeste 0 -- -- 91
2019-02-19 22:00:00 2.9 6 Sur 8 Sur 0 -- -- 89
2019-02-19 21:00:00 4.8 4 Sur 6 Sudeste 0 -- -- 84
2019-02-19 20:00:00 6.9 3 Sur 8 Sudeste 0 -- -- 80
2019-02-19 19:00:00 8.8 3 Sudeste 4 Sudeste 0 -- -- 75
2019-02-19 18:00:00 8.9 0 Calma 22 Oeste 0 -- -- 77
2019-02-19 17:00:00 9.3 5 Oeste 19 Oeste 0 -- -- 79
2019-02-19 16:00:00 11.4 12 Sudoeste 28 Oeste 0 -- -- 65
2019-02-19 15:00:00 11.3 10 Sur 15 Sur 0 -- -- 65
2019-02-19 14:00:00 10.1 7 Sur 12 Sudeste 0 -- -- 77
2019-02-19 13:00:00 8.7 3 Sudeste 6 Sur 0 -- -- 86
2019-02-19 12:00:00 8.1 3 Sudoeste 6 Sur 0 -- -- 87
2019-02-19 11:00:00 7.2 3 Noroeste 7 Oeste 0 -- -- 93
2019-02-19 10:00:00 6.8 3 Sudoeste 5 Sur 0 -- -- 95
2019-02-19 09:00:00 6.6 0 Calma 3 Sur 0 -- -- 95
2019-02-19 08:00:00 6.6 2 Sur 3 Sudoeste 0 -- -- 94
2019-02-19 07:00:00 6.6 0 Calma 4 Oeste 0 -- -- 95
2019-02-19 06:00:00 6.5 3 Sur 5 Sur 0.2 -- -- 95
2019-02-19 05:00:00 6.3 2 Sur 4 Sur 0 -- -- 95
2019-02-19 04:00:00 5.9 0 Calma 4 Sudeste 0 -- -- 95
2019-02-19 03:00:00 5.6 2 Sudeste -- -- 0 -- -- 93
2019-02-19 02:00:00 5.2 2 Sudoeste 4 Sur 0 -- -- 93
2019-02-19 01:00:00 4.9 3 Sur 6 Sur 0 -- -- 92
2019-02-19 00:00:00 5 4 Sur 8 Sur 0 -- -- 92
2019-02-18 23:00:00 5 3 Sudeste 6 Sur 0 -- -- 90
2019-02-18 22:00:00 4.8 5 Sur 7 Sur 0 -- -- 90
2019-02-18 21:00:00 4.9 5 Sur 7 Sur 0 -- -- 85
2019-02-18 20:00:00 7.8 0 Calma 14 Noroeste 0 -- -- 78
2019-02-18 19:00:00 9.9 9 Noroeste 23 Oeste 0 -- -- 73
2019-02-18 18:00:00 12.7 14 Oeste 25 Oeste 0 -- -- 56
2019-02-18 17:00:00 13.2 13 Oeste 22 Oeste 0 -- -- 54
2019-02-18 16:00:00 13.2 11 Sudoeste 22 Sur 0 -- -- 52
2019-02-18 15:00:00 13.7 7 Sudeste 15 Sudeste 0 -- -- 52
2019-02-18 14:00:00 12.4 6 Sur 15 Sudeste 0 -- -- 55
2019-02-18 13:00:00 10.7 4 Este 9 Sur 0 -- -- 62
2019-02-18 12:00:00 8.6 3 Nordeste 5 Nordeste 0 -- -- 71
2019-02-18 11:00:00 6.4 0 Calma 5 Sur 0 -- -- 80
2019-02-18 10:00:00 4.2 0 Calma 7 Sur 0 -- -- 85
2019-02-18 09:00:00 2.3 2 Sur 5 Sudeste 0 -- -- 90
2019-02-18 08:00:00 2.2 2 Sudoeste 8 Sudeste 0 -- -- 88
2019-02-18 07:00:00 2.2 6 Sudeste 10 Sur 0 -- -- 89
2019-02-18 06:00:00 2.7 3 Sur 12 Sur 0 -- -- 86
2019-02-18 05:00:00 2.1 4 Sudoeste 12 Sur 0 -- -- 88
2019-02-18 04:00:00 2.3 4 Sur 9 Sudoeste 0 -- -- 86
2019-02-18 03:00:00 2.8 5 Sur 7 Sur 0 -- -- 85
2019-02-18 02:00:00 4 2 Sudeste 13 Sudoeste 0 -- -- 80
2019-02-18 01:00:00 4.7 3 Sur 5 Este 0 -- -- 80
2019-02-18 00:00:00 4.3 5 Sur 8 Sur 0 -- -- 81
2019-02-17 23:00:00 3.2 6 Sur 12 Sur 0 -- -- 81
2019-02-17 22:00:00 4.4 2 Sudeste 7 Sudoeste 0 -- -- 73
2019-02-17 21:00:00 7 2 Este 12 Oeste 0 -- -- 65
2019-02-17 20:00:00 8.7 11 Sudoeste 21 Oeste 0 -- -- 58
2019-02-17 19:00:00 10.5 12 Sudoeste 21 Sudoeste 0 -- -- 50
2019-02-17 18:00:00 12.8 13 Sudoeste 23 Sudoeste 0 -- -- 43
2019-02-17 17:00:00 13.7 14 Sudoeste 21 Sudoeste 0 -- -- 39
2019-02-17 16:00:00 15.3 8 Sudoeste 22 Sudoeste 0 -- -- 36
2019-02-17 15:00:00 15 12 Oeste 28 Oeste 0 -- -- 42
2019-02-17 14:00:00 14.5 10 Oeste 19 Oeste 0 -- -- 43
2019-02-17 13:00:00 13.8 6 Oeste 12 Oeste 0 -- -- 45
2019-02-17 12:00:00 12 5 Noroeste 10 Noroeste 0 -- -- 55
2019-02-17 11:00:00 8 3 Norte 6 Norte 0 -- -- 69
2019-02-17 10:00:00 2.2 2 Este 6 Este 0 -- -- 86
2019-02-17 09:00:00 -2.1 2 Sur 9 Sudeste 0 -- -- 93
2019-02-17 08:00:00 -3.2 0 Calma 5 Sudoeste 0 -- -- 90
2019-02-17 07:00:00 -2.5 3 Sudoeste 8 Sur 0 -- -- 90
2019-02-17 06:00:00 -2.2 5 Sur 10 Sur 0 -- -- 91
2019-02-17 05:00:00 -1.9 6 Sur 11 Sur 0 -- -- 91
2019-02-17 04:00:00 -1.5 4 Sur 7 Sur 0 -- -- 90
2019-02-17 03:00:00 -0.8 4 Sur 10 Sur 0 -- -- 90
2019-02-17 02:00:00 0 6 Sur 7 Sur 0 -- -- 89
2019-02-17 01:00:00 0.8 4 Sur 7 Sudeste 0 -- -- 88
2019-02-17 00:00:00 1.9 3 Este 9 Sur 0 -- -- 84
2019-02-16 23:00:00 2.7 5 Sur 8 Sur 0 -- -- 82
2019-02-16 22:00:00 4 6 Sur 9 Sur 0 -- -- 80
2019-02-16 21:00:00 5.4 6 Sur 8 Sur 0 -- -- 74
2019-02-16 20:00:00 8 7 Sur 8 Sur 0 -- -- 64
2019-02-16 19:00:00 13.6 4 Oeste 12 Oeste 0 -- -- 47
2019-02-16 18:00:00 16.4 7 Oeste 15 Oeste 0 -- -- 39
2019-02-16 17:00:00 17.3 8 Oeste 19 Sudoeste 0 -- -- 34
2019-02-16 16:00:00 17.9 3 Oeste 14 Noroeste 0 -- -- 40
2019-02-16 15:00:00 16.9 5 Este 9 Este 0 -- -- 39
2019-02-16 14:00:00 15.9 3 Nordeste 9 Norte 0 -- -- 42
2019-02-16 13:00:00 13.5 5 Nordeste 12 Nordeste 0 -- -- 50
2019-02-16 12:00:00 10.8 5 Nordeste 9 Norte 0 -- -- 57
2019-02-16 11:00:00 6.2 5 Noroeste 10 Noroeste 0 -- -- 76
2019-02-16 10:00:00 1.9 0 Calma 4 Este 0 -- -- 90
2019-02-16 09:00:00 -2.3 0 Calma 6 Sudoeste 0 -- -- 93
2019-02-16 08:00:00 -3.2 0 Calma 5 Sudeste 0 -- -- 89
2019-02-16 07:00:00 -2.9 2 Oeste 5 Sur 0 -- -- 91
2019-02-16 06:00:00 -2.6 3 Sur 8 Sur 0 -- -- 92
2019-02-16 05:00:00 -2.4 5 Sur 9 Sur 0 -- -- 91
2019-02-16 04:00:00 -2.4 2 Sur 7 Sur 0 -- -- 88
2019-02-16 03:00:00 -1.6 5 Sur 10 Sur 0 -- -- 90
2019-02-16 02:00:00 -1.1 3 Sur 8 Sur 0 -- -- 88
2019-02-16 01:00:00 -0.5 5 Sur 6 Sur 0 -- -- 88
2019-02-16 00:00:00 0.2 4 Sur 9 Sur 0 -- -- 86
2019-02-15 23:00:00 0.9 5 Sur 9 Sur 0 -- -- 85
2019-02-15 22:00:00 1.7 7 Sur 8 Sur 0 -- -- 81
2019-02-15 21:00:00 4 5 Sur 8 Sur 0 -- -- 75
2019-02-15 20:00:00 7.5 5 Sur 6 Sur 0 -- -- 65
2019-02-15 19:00:00 11.7 6 Nordeste 12 Nordeste 0 -- -- 52
2019-02-15 18:00:00 14.9 9 Nordeste 17 Nordeste 0 -- -- 41
2019-02-15 17:00:00 16.2 10 Este 18 Este 0 -- -- 39
2019-02-15 16:00:00 16.4 9 Nordeste 18 Este 0 -- -- 37
2019-02-15 15:00:00 15.8 12 Este 22 Este 0 -- -- 39
2019-02-15 14:00:00 14.6 12 Este 19 Nordeste 0 -- -- 42
2019-02-15 13:00:00 13.5 13 Nordeste 23 Nordeste 0 -- -- 45
2019-02-15 12:00:00 11.9 13 Este 22 Este 0 -- -- 53
2019-02-15 11:00:00 8.9 9 Este 13 Nordeste 0 -- -- 61
2019-02-15 10:00:00 2.5 4 Sur 6 Sur 0 -- -- 91
2019-02-15 09:00:00 -2.4 3 Sur 8 Sur 0 -- -- 94
2019-02-15 08:00:00 -3.3 3 Sur 9 Sur 0 -- -- 91
2019-02-15 07:00:00 -2.9 2 Sudeste 10 Sudoeste 0 -- -- 89
2019-02-15 06:00:00 -2.5 5 Sur 8 Sudeste 0 -- -- 90
2019-02-15 05:00:00 -1.9 5 Sur 9 Sur 0 -- -- 89
2019-02-15 04:00:00 -2 3 Sudoeste 9 Sur 0 -- -- 90
2019-02-15 03:00:00 -1.7 6 Sur 8 Sur 0 -- -- 90
2019-02-15 02:00:00 -1.5 5 Sur 9 Sur 0 -- -- 90
2019-02-15 01:00:00 -1 3 Sur 5 Sur 0 -- -- 86
2019-02-15 00:00:00 -0.2 3 Sur 7 Sudoeste 0 -- -- 84
2019-02-14 23:00:00 1.4 3 Sur 6 Sur 0 -- -- 81
2019-02-14 22:00:00 3.5 4 Sur 8 Sur 0 -- -- 77
2019-02-14 21:00:00 6.8 4 Sur 10 Sudeste 0 -- -- 68
2019-02-14 20:00:00 9.1 9 Sur 13 Sur 0 -- -- 62
2019-02-14 19:00:00 13.5 8 Sudoeste 14 Sudoeste 0 -- -- 49
2019-02-14 18:00:00 17.8 5 Sudoeste 10 Sudoeste 0 -- -- 38
2019-02-14 17:00:00 17.8 3 Nordeste 8 Norte 0 -- -- 34
2019-02-14 16:00:00 17.3 8 Oeste 14 Oeste 0 -- -- 32
2019-02-14 15:00:00 16.7 6 Nordeste 12 Nordeste 0 -- -- 34
2019-02-14 14:00:00 15.6 5 Nordeste 14 Nordeste 0 -- -- 30
2019-02-14 13:00:00 14.5 7 Este 12 Este 0 -- -- 38
2019-02-14 12:00:00 12.3 5 Nordeste 9 Este 0 -- -- 50
2019-02-14 11:00:00 7.3 3 Este 5 Nordeste 0 -- -- 71
2019-02-14 10:00:00 1.1 0 Calma 3 Norte 0 -- -- 89
2019-02-14 09:00:00 -2.5 0 Calma 5 Sur 0 -- -- 93
2019-02-14 08:00:00 -3.2 4 Sur 6 Sur 0 -- -- 92
2019-02-14 07:00:00 -3.2 3 Sur 5 Sur 0 -- -- 91
2019-02-14 06:00:00 -2.9 5 Sur 6 Sur 0 -- -- 91
2019-02-14 05:00:00 -2.7 4 Sur 5 Sudeste 0 -- -- 91
2019-02-14 04:00:00 -2.3 4 Sur 5 Sur 0 -- -- 90
2019-02-14 03:00:00 -1.9 3 Sur 5 Sur 0 -- -- 89
2019-02-14 02:00:00 -1.4 3 Sur 7 Sur 0 -- -- 88
2019-02-14 01:00:00 -0.8 4 Sur 9 Sur 0 -- -- 87
2019-02-14 00:00:00 -0.3 6 Sur 8 Sur 0 -- -- 85
2019-02-13 23:00:00 0.8 4 Sur 6 Sur 0 -- -- 82
2019-02-13 22:00:00 1.7 7 Sur 10 Sur 0 -- -- 81
2019-02-13 21:00:00 3.8 6 Sur 8 Sur 0 -- -- 72
2019-02-13 20:00:00 7.2 4 Sur 5 Sudoeste 0 -- -- 57
2019-02-13 19:00:00 12.4 2 Nordeste 8 Nordeste 0 -- -- 43
2019-02-13 18:00:00 14.9 5 Nordeste 9 Norte 0 -- -- 34
2019-02-13 17:00:00 15 4 Nordeste 13 Nordeste 0 -- -- 33
2019-02-13 16:00:00 15.2 2 Sudeste 13 Este 0 -- -- 32
2019-02-13 15:00:00 14.5 8 Nordeste 19 Este 0 -- -- 35
2019-02-13 14:00:00 13.7 6 Este 15 Nordeste 0 -- -- 42
2019-02-13 13:00:00 12.5 4 Norte 12 Nordeste 0 -- -- 41
2019-02-13 12:00:00 11.1 3 Este 6 Este 0 -- -- 50
2019-02-13 11:00:00 6.8 3 Nordeste 6 Nordeste 0 -- -- 71
2019-02-13 10:00:00 1 0 Calma 4 Sudoeste 0 -- -- 90
2019-02-13 09:00:00 -3.1 2 Sur 6 Sur 0 -- -- 93
2019-02-13 08:00:00 -3.7 5 Sur 7 Sur 0 -- -- 92
2019-02-13 07:00:00 -3.6 5 Sur 8 Sur 0 -- -- 92
2019-02-13 06:00:00 -3.3 4 Sur 5 Sur 0 -- -- 91
2019-02-13 05:00:00 -3 6 Sur 12 Sur 0 -- -- 92
2019-02-13 04:00:00 -2.8 4 Sur 5 Sur 0 -- -- 90
2019-02-13 03:00:00 -2.4 4 Sur 7 Sur 0 -- -- 91
2019-02-13 02:00:00 -2.2 5 Sur 6 Sur 0 -- -- 90
2019-02-13 01:00:00 -1.8 4 Sur 6 Sur 0 -- -- 89
2019-02-13 00:00:00 -1.1 4 Sur 6 Sur 0 -- -- 88
2019-02-12 23:00:00 -0.3 6 Sur 7 Sur 0 -- -- 86
2019-02-12 22:00:00 0.8 5 Sur 8 Sur 0 -- -- 82
2019-02-12 21:00:00 2.7 4 Sur 8 Sur 0 -- -- 75
2019-02-12 20:00:00 5.7 5 Sur 7 Sur 0 -- -- 68
2019-02-12 19:00:00 10.4 2 Sudeste 8 Este 0 -- -- 53
2019-02-12 18:00:00 12 6 Este 11 Este 0 -- -- 44
2019-02-12 17:00:00 12.3 4 Este 11 Este 0 -- -- 41
2019-02-12 16:00:00 11.6 6 Este 12 Este 0 -- -- 40
2019-02-12 15:00:00 10.4 6 Este 16 Este 0 -- -- 50
2019-02-12 14:00:00 8.7 8 Nordeste 20 Este 0 -- -- 64
2019-02-12 13:00:00 7.5 11 Este 19 Este 0 -- -- 69
2019-02-12 12:00:00 5.8 9 Este 15 Este 0 -- -- 77
2019-02-12 11:00:00 3.6 8 Este 14 Este 0 -- -- 85
2019-02-12 10:00:00 1.3 5 Nordeste 7 Nordeste 0 -- -- 93
2019-02-12 09:00:00 -1.5 2 Sudeste 6 Noroeste 0 -- -- 93
2019-02-12 08:00:00 -0.9 6 Norte 13 Este 0 -- -- 94
2019-02-12 07:00:00 -1 3 Este 16 Este 0 -- -- 91
2019-02-12 06:00:00 -0.7 9 Este 15 Este 0 -- -- 92
2019-02-12 05:00:00 -0.5 3 Nordeste 17 Este 0 -- -- 89
2019-02-12 04:00:00 0.3 14 Este 23 Este 0 -- -- 88
2019-02-12 03:00:00 -1.8 3 Este 5 Este 0 -- -- 88
2019-02-12 02:00:00 -0.9 2 Noroeste 7 Sudoeste 0 -- -- 87
2019-02-12 01:00:00 1.4 6 Este 14 Este 0 -- -- 84
2019-02-12 00:00:00 1.2 7 Este 13 Este 0 -- -- 84
2019-02-11 23:00:00 0.7 5 Sudeste 11 Nordeste 0 -- -- 84
2019-02-11 22:00:00 2.5 4 Sur 9 Nordeste 0 -- -- 76
2019-02-11 21:00:00 3.6 4 Nordeste 9 Este 0 -- -- 72
2019-02-11 20:00:00 5.4 4 Nordeste 14 Nordeste 0 -- -- 69
2019-02-11 19:00:00 7.5 11 Nordeste 24 Este 0 -- -- 60
2019-02-11 18:00:00 9.4 17 Nordeste 28 Nordeste 0 -- -- 53
2019-02-11 17:00:00 10.2 18 Nordeste 31 Nordeste 0 -- -- 49
2019-02-11 16:00:00 10.4 18 Este 28 Nordeste 0 -- -- 52
2019-02-11 15:00:00 9.7 21 Este 34 Este 0 -- -- 52
2019-02-11 14:00:00 9.1 22 Este 50 Este 0 -- -- 59
2019-02-11 13:00:00 8.3 23 Este 35 Este 0 -- -- 61
2019-02-11 12:00:00 6.9 25 Este 34 Este 0 -- -- 68
2019-02-11 11:00:00 4.7 28 Este 42 Este 0 -- -- 80
2019-02-11 10:00:00 2.1 17 Este 24 Este 0 -- -- 99
2019-02-11 09:00:00 -0.8 3 Nordeste 5 Sur 0 -- -- 97
2019-02-11 08:00:00 -1 4 Sudoeste 6 Sudoeste 0 -- -- 96
2019-02-11 07:00:00 -1.1 0 Calma 4 Sudeste 0 -- -- 95
2019-02-11 06:00:00 -0.2 3 Sudoeste 7 Sur 0 -- -- 95
2019-02-11 05:00:00 -0.1 3 Sudoeste 5 Sur 0 -- -- 93
2019-02-11 04:00:00 1.2 3 Sur 4 Sudeste 0 -- -- 92
2019-02-11 03:00:00 2.8 4 Sudoeste 8 Sur 0 -- -- 92
2019-02-11 02:00:00 4.5 3 Sur 12 Oeste 0 -- -- 92
2019-02-11 01:00:00 5.2 6 Oeste 13 Oeste 0 -- -- 93
2019-02-11 00:00:00 4.5 7 Sudoeste 12 Oeste 0 -- -- 92
2019-02-10 23:00:00 5.7 5 Sudoeste 19 Oeste 0 -- -- 87
2019-02-10 22:00:00 7.2 12 Oeste 20 Oeste 0 -- -- 83
2019-02-10 21:00:00 9.2 12 Oeste 31 Oeste 0 -- -- 92
2019-02-10 20:00:00 9.7 17 Sudoeste 31 Oeste 0 -- -- 93
2019-02-10 19:00:00 9.9 17 Sudoeste 31 Sudoeste 0 -- -- 94
2019-02-10 18:00:00 10.1 20 Sudoeste 37 Sudoeste 0 -- -- 93
2019-02-10 17:00:00 10.6 21 Sudoeste 39 Sudoeste 0 -- -- 89
2019-02-10 16:00:00 11.1 26 Sudoeste 43 Sudoeste 0 -- -- 83
2019-02-10 15:00:00 10.7 27 Sudoeste 48 Sudoeste 0 -- -- 82
2019-02-10 14:00:00 10.9 26 Sudoeste 44 Sudoeste 0 -- -- 79
2019-02-10 13:00:00 10.2 25 Sudoeste 44 Sudoeste 0 -- -- 79
2019-02-10 12:00:00 8.8 21 Sur 37 Sur 0 -- -- 84
2019-02-10 11:00:00 8.8 19 Sudoeste 44 Sudoeste 0 -- -- 82
2019-02-10 10:00:00 8.4 25 Sudoeste 43 Sudoeste 0 -- -- 85
2019-02-10 09:00:00 7.9 21 Sudoeste 38 Sudoeste 0 -- -- 85
2019-02-10 08:00:00 7.8 24 Sudoeste 44 Sudoeste 0 -- -- 84
2019-02-10 07:00:00 6.8 19 Sudoeste 32 Sudoeste 0 -- -- 86
2019-02-10 06:00:00 6.6 13 Sudoeste 27 Sudoeste 0 -- -- 86
2019-02-10 05:00:00 6.4 15 Sudoeste 23 Sudoeste 0 -- -- 86
2019-02-10 04:00:00 6.6 11 Sudoeste 26 Sudoeste 0 -- -- 85
2019-02-10 03:00:00 6.2 19 Sur 32 Sudoeste 0 -- -- 86
2019-02-10 02:00:00 6.3 9 Sudoeste 19 Sur 0 -- -- 84
2019-02-10 01:00:00 6.1 7 Sur 25 Sur 0 -- -- 85
2019-02-10 00:00:00 6.2 16 Sur 25 Sur 0 -- -- 84
2019-02-09 23:00:00 5.9 17 Sur 24 Sur 0 -- -- 84
2019-02-09 22:00:00 6.2 13 Sur 20 Sudoeste 0 -- -- 81
2019-02-09 21:00:00 6.9 11 Sudoeste 21 Sur 0 -- -- 77
2019-02-09 20:00:00 6.7 9 Sudoeste 26 Sudoeste 0 -- -- 76
2019-02-09 19:00:00 8.1 15 Sudoeste 33 Sudoeste 0 -- -- 73
2019-02-09 18:00:00 10.2 19 Oeste 34 Oeste 0 -- -- 68
2019-02-09 17:00:00 11.9 19 Oeste 35 Oeste 0 -- -- 63
2019-02-09 16:00:00 12.3 15 Oeste 26 Oeste 0 -- -- 61
2019-02-09 15:00:00 12 16 Oeste 26 Oeste 0 -- -- 62
2019-02-09 14:00:00 11.2 14 Sudoeste 29 Sudoeste 0 -- -- 64
2019-02-09 13:00:00 10.1 13 Sudoeste 21 Sudoeste 0 -- -- 68
2019-02-09 12:00:00 9.5 8 Oeste 14 Sudoeste 0 -- -- 73
2019-02-09 11:00:00 7.8 6 Sur 11 Sur 0 -- -- 80
2019-02-09 10:00:00 5.9 5 Sur 8 Sur 0 -- -- 93
2019-02-09 09:00:00 4.9 4 Sur 6 Sudeste 0 -- -- 94
2019-02-09 08:00:00 5.1 0 Calma 5 Noroeste 0 -- -- 93
2019-02-09 07:00:00 5.5 3 Oeste 5 Sur 0 -- -- 92
2019-02-09 06:00:00 5.6 5 Sur 7 Sudoeste 0 -- -- 91
2019-02-09 05:00:00 5.7 6 Oeste 13 Oeste 0 -- -- 92
2019-02-09 04:00:00 5 5 Sudoeste 7 Sudoeste 0 -- -- 94
2019-02-09 03:00:00 4.6 0 Calma 5 Sur 0 -- -- 94
2019-02-09 02:00:00 4.1 5 Sur 7 Sur 0 -- -- 95
2019-02-09 01:00:00 3.4 5 Sur 13 Sudoeste 0 -- -- 95
2019-02-09 00:00:00 2.7 6 Sur 10 Sur 0 -- -- 96
2019-02-08 23:00:00 1.9 4 Sur 5 Sudeste 0 -- -- 92
2019-02-08 22:00:00 2.6 3 Sur 10 Sudeste 0 -- -- 91
2019-02-08 21:00:00 3.4 8 Sudeste 9 Sudeste 0 -- -- 88
2019-02-08 20:00:00 5.3 6 Sur 13 Oeste 0 -- -- 85
2019-02-08 19:00:00 7.3 12 Oeste 27 Oeste 0 -- -- 82
2019-02-08 18:00:00 9.8 15 Oeste 28 Oeste 0 -- -- 74
2019-02-08 17:00:00 11.4 16 Oeste 29 Noroeste 0 -- -- 70
2019-02-08 16:00:00 12.2 18 Oeste 27 Sudoeste 0 -- -- 68
2019-02-08 15:00:00 11 11 Oeste 21 Oeste 0 -- -- 73
2019-02-08 14:00:00 9.4 9 Oeste 24 Noroeste 0 -- -- 77
2019-02-08 13:00:00 7.9 11 Noroeste 25 Oeste 0 -- -- 80
2019-02-08 12:00:00 8 16 Oeste 26 Oeste 0 -- -- 79
2019-02-08 11:00:00 5.2 3 Sudoeste 11 Oeste 0 -- -- 91
2019-02-08 10:00:00 0.5 2 Sur 6 Sur 0 -- -- 97
2019-02-08 09:00:00 -3.5 0 Calma 5 Sur 0 -- -- 94
2019-02-08 08:00:00 -3.5 3 Sur 5 Sudeste 0 -- -- 94
2019-02-08 07:00:00 -3.2 4 Sur 5 Sur 0 -- -- 94
2019-02-08 06:00:00 -3 5 Sur 7 Sur 0 -- -- 94
2019-02-08 05:00:00 -2.9 2 Sur 6 Sur 0 -- -- 93
2019-02-08 04:00:00 -2.5 4 Sudoeste 6 Sudoeste 0 -- -- 93
2019-02-08 03:00:00 -1.9 4 Sur 6 Sur 0 -- -- 93
2019-02-08 02:00:00 -1.4 5 Sur 8 Sur 0 -- -- 93
2019-02-08 01:00:00 -1 5 Sur 10 Sur 0 -- -- 93
2019-02-08 00:00:00 -0.7 4 Sur 8 Sur 0 -- -- 91
2019-02-07 23:00:00 0.2 5 Sur 8 Sur 0 -- -- 89
2019-02-07 22:00:00 1.3 8 Sur 11 Sur 0 -- -- 90
2019-02-07 21:00:00 2.2 7 Sur 10 Sur 0 -- -- 86
2019-02-07 20:00:00 5.1 6 Sur 8 Sur 0 -- -- 79
2019-02-07 19:00:00 9.3 5 Noroeste 12 Noroeste 0 -- -- 66
2019-02-07 18:00:00 11.4 8 Oeste 18 Oeste 0 -- -- 60
2019-02-07 17:00:00 12.3 9 Oeste 18 Oeste 0 -- -- 58
2019-02-07 16:00:00 12.3 13 Oeste 20 Sudoeste 0 -- -- 60
2019-02-07 15:00:00 11.4 8 Noroeste 16 Oeste 0 -- -- 61
2019-02-07 14:00:00 10.6 4 Oeste 16 Noroeste 0 -- -- 65
2019-02-07 13:00:00 10.3 11 Oeste 19 Oeste 0 -- -- 69
2019-02-07 12:00:00 8.3 9 Oeste 19 Noroeste 0 -- -- 76
2019-02-07 11:00:00 6.5 8 Oeste 13 Oeste 0 -- -- 70
2019-02-07 10:00:00 1.7 3 Sudeste 6 Sudoeste 0 -- -- 92
2019-02-07 09:00:00 -1.2 4 Sudoeste 9 Sur 0 -- -- 93
2019-02-07 08:00:00 -1.7 4 Sur 8 Sur 0 -- -- 93
2019-02-07 07:00:00 -1.5 5 Sur 12 Sur 0 -- -- 93
2019-02-07 06:00:00 -1.8 5 Sur 8 Sur 0 -- -- 92
2019-02-07 05:00:00 -1.4 0 Calma 4 Sur 0 -- -- 88
2019-02-07 04:00:00 -0.5 3 Sudoeste 9 Sur 0 -- -- 90
2019-02-07 03:00:00 -0.1 8 Sudoeste 11 Sudoeste 0 -- -- 88
2019-02-07 02:00:00 0.6 7 Sudoeste 10 Sudoeste 0 -- -- 88
2019-02-07 01:00:00 1.8 5 Sur 9 Sur 0 -- -- 84
2019-02-07 00:00:00 2.4 4 Sur 10 Sur 0 -- -- 84
2019-02-06 23:00:00 3.6 6 Sudoeste 13 Sudoeste 0 -- -- 81
2019-02-06 22:00:00 4.6 12 Sudoeste 14 Sur 0 -- -- 82
2019-02-06 21:00:00 4.9 6 Sur 9 Sur 0 -- -- 83
2019-02-06 20:00:00 6.9 6 Sur 10 Sur 0 -- -- 76
2019-02-06 19:00:00 11.3 5 Sudoeste 12 Oeste 0 -- -- 61
2019-02-06 18:00:00 13.9 9 Oeste 22 Oeste 0 -- -- 52
2019-02-06 17:00:00 14.8 15 Oeste 25 Oeste 0 -- -- 49
2019-02-06 16:00:00 15.1 15 Oeste 28 Oeste 0 -- -- 45
2019-02-06 15:00:00 14.8 16 Oeste 28 Oeste 0 -- -- 53
2019-02-06 14:00:00 14 14 Oeste 26 Oeste 0 -- -- 55
2019-02-06 13:00:00 13.1 11 Oeste 24 Oeste 0 -- -- 59
2019-02-06 12:00:00 11.1 5 Nordeste 8 Nordeste 0 -- -- 73
2019-02-06 11:00:00 7.1 0 Calma 4 Nordeste 0 -- -- 84
2019-02-06 10:00:00 1.6 2 Sur 5 Sur 0 -- -- 97
2019-02-06 09:00:00 -2.3 4 Sur 5 Sur 0 -- -- 95
2019-02-06 08:00:00 -2.4 4 Sur 5 Sur 0 -- -- 94
2019-02-06 07:00:00 -2.1 4 Sur 7 Sudeste 0 -- -- 94
2019-02-06 06:00:00 -1.8 3 Sur 5 Sur 0 -- -- 93
2019-02-06 05:00:00 -1.4 3 Sudeste 6 Sur 0 -- -- 93
2019-02-06 04:00:00 -1 5 Sur 7 Sur 0 -- -- 94
2019-02-06 03:00:00 -0.7 6 Sur 9 Sur 0 -- -- 94
2019-02-06 02:00:00 -0.4 6 Sur 7 Sur 0 -- -- 93
2019-02-06 01:00:00 0.1 5 Sur 8 Sur 0 -- -- 92
2019-02-06 00:00:00 0.8 6 Sur 11 Sur 0 -- -- 91
2019-02-05 23:00:00 1.7 6 Sur 9 Sur 0 -- -- 91
2019-02-05 22:00:00 2.8 6 Sur 8 Sur 0 -- -- 88
2019-02-05 21:00:00 4.4 5 Sur 10 Sur 0 -- -- 84
2019-02-05 20:00:00 6.8 5 Sur 9 Sur 0 -- -- 77
2019-02-05 19:00:00 11.9 3 Norte 8 Norte 0 -- -- 63
2019-02-05 18:00:00 14 5 Norte 11 Noroeste 0 -- -- 53
2019-02-05 17:00:00 14.7 6 Noroeste 12 Oeste 0 -- -- 51
2019-02-05 16:00:00 14.7 3 Noroeste 10 Nordeste 0 -- -- 51
2019-02-05 15:00:00 14.3 3 Nordeste 13 Nordeste 0 -- -- 56
2019-02-05 14:00:00 13.2 7 Nordeste 13 Nordeste 0 -- -- 59
2019-02-05 13:00:00 12 7 Nordeste 13 Este 0 -- -- 64
2019-02-05 12:00:00 10.5 7 Este 10 Nordeste 0 -- -- 68
2019-02-05 11:00:00 6 0 Calma 2 Noroeste 0 -- -- 70
2019-02-05 10:00:00 0.8 2 Sur 5 Sur 0 -- -- 87
2019-02-05 09:00:00 -2.8 2 Sur 5 Sur 0 -- -- 91
2019-02-05 08:00:00 -3.1 5 Sudeste 6 Sur 0 -- -- 89
2019-02-05 07:00:00 -3 4 Sur 6 Sur 0 -- -- 91
2019-02-05 06:00:00 -2.7 4 Sur 7 Sur 0 -- -- 91
2019-02-05 05:00:00 -2.5 4 Sur 7 Sur 0 -- -- 90
2019-02-05 04:00:00 -2.2 5 Sur 7 Sur 0 -- -- 89
2019-02-05 03:00:00 -2 5 Sur 9 Sur 0 -- -- 89
2019-02-05 02:00:00 -1.7 4 Sur 8 Sur 0 -- -- 88
2019-02-05 01:00:00 -1 4 Sur 10 Sur 0 -- -- 86
2019-02-05 00:00:00 -0.8 7 Sur 10 Sur 0 -- -- 86
2019-02-04 23:00:00 -0.4 6 Sur 9 Sur 0 -- -- 85
2019-02-04 22:00:00 0.3 5 Sur 11 Sur 0 -- -- 82
2019-02-04 21:00:00 1.6 6 Sur 9 Sur 0 -- -- 79
2019-02-04 20:00:00 4 6 Sur 8 Sur 0 -- -- 71
2019-02-04 19:00:00 8.5 2 Sur 8 Noroeste 0 -- -- 55
2019-02-04 18:00:00 11 5 Noroeste 13 Oeste 0 -- -- 38
2019-02-04 17:00:00 11.7 9 Oeste 14 Oeste 0 -- -- 35
2019-02-04 16:00:00 11 9 Noroeste 15 Oeste 0 -- -- 25
2019-02-04 15:00:00 11.1 6 Noroeste 14 Nordeste 0 -- -- 34
2019-02-04 14:00:00 10.3 3 Norte 9 Nordeste 0 -- -- 45
2019-02-04 13:00:00 8.1 5 Nordeste 10 Norte 0 -- -- 55
2019-02-04 12:00:00 4.9 4 Nordeste 10 Nordeste 0 -- -- 70
2019-02-04 11:00:00 1.5 2 Norte 7 Norte 0 -- -- 83
2019-02-04 10:00:00 -1.5 2 Nordeste 6 Noroeste 0 -- -- 91
2019-02-04 09:00:00 -4.6 4 Sur 10 Sur 0 -- -- 94
2019-02-04 08:00:00 -5.6 2 Noroeste 5 Noroeste 0 -- -- 92
2019-02-04 07:00:00 -5.3 6 Sur 13 Sudeste 0 -- -- 93
2019-02-04 06:00:00 -5.7 3 Sur 9 Sur 0 -- -- 92
2019-02-04 05:00:00 -5.6 2 Norte 5 Sur 0 -- -- 91
2019-02-04 04:00:00 -5.3 5 Sur 6 Sur 0 -- -- 92
2019-02-04 03:00:00 -5.2 3 Sur 8 Sur 0 -- -- 91
2019-02-04 02:00:00 -5 3 Sur 5 Sur 0 -- -- 91
2019-02-04 01:00:00 -4.5 4 Sudoeste 8 Sur 0 -- -- 90
2019-02-04 00:00:00 -4.2 4 Sudoeste 8 Sudoeste 0 -- -- 88
2019-02-03 23:00:00 -3.4 5 Sur 7 Sudeste 0 -- -- 88
2019-02-03 22:00:00 -2.7 4 Sur 6 Sur 0 -- -- 87
2019-02-03 21:00:00 -1.9 4 Sur 8 Sudeste 0 -- -- 85
2019-02-03 20:00:00 0 5 Sur 6 Sur 0 -- -- 77
2019-02-03 19:00:00 3.1 6 Este 16 Este 0 -- -- 69
2019-02-03 18:00:00 5 12 Nordeste 21 Nordeste 0 -- -- 59
2019-02-03 17:00:00 5.7 14 Este 26 Este 0 -- -- 54
2019-02-03 16:00:00 5.7 14 Nordeste 23 Nordeste 0 -- -- 53
2019-02-03 15:00:00 5.2 13 Nordeste 27 Nordeste 0 -- -- 53
2019-02-03 14:00:00 4.9 12 Nordeste 26 Este 0 -- -- 53
2019-02-03 13:00:00 4.2 13 Nordeste 24 Este 0 -- -- 57
2019-02-03 12:00:00 2.8 12 Nordeste 22 Norte 0 -- -- 70
2019-02-03 11:00:00 0.4 4 Nordeste 8 Nordeste 0 -- -- 83
2019-02-03 10:00:00 -2.1 2 Sur 9 Sur 0 -- -- 95
2019-02-03 09:00:00 -5.1 6 Sur 9 Sur 0 -- -- 94
2019-02-03 08:00:00 -5.4 5 Sur 9 Sur 0 -- -- 93
2019-02-03 07:00:00 -5.4 6 Sur 9 Sur 0 -- -- 93
2019-02-03 06:00:00 -5.2 6 Sur 8 Sur 0 -- -- 93
2019-02-03 05:00:00 -4.8 4 Sudeste 6 Sudoeste 0 -- -- 93
2019-02-03 04:00:00 -4.3 0 Calma 8 Sudoeste 0 -- -- 92
2019-02-03 03:00:00 -3.8 2 Sudeste 5 Sur 0 -- -- 91
2019-02-03 02:00:00 -2.8 2 Sudeste 7 Sudeste 0 -- -- 92
2019-02-03 01:00:00 -1.8 2 Sudoeste 8 Oeste 0 -- -- 89
2019-02-03 00:00:00 -0.7 5 Oeste 11 Oeste 0 -- -- 87
2019-02-02 23:00:00 -0.7 3 Oeste 8 Noroeste 0 -- -- 85
2019-02-02 22:00:00 0.3 5 Oeste 20 Noroeste 0 -- -- 81
2019-02-02 21:00:00 1.2 12 Noroeste 19 Oeste 0 -- -- 76
2019-02-02 20:00:00 2.2 10 Oeste 22 Noroeste 0 -- -- 70
2019-02-02 19:00:00 3.6 14 Noroeste 32 Noroeste 0 -- -- 62
2019-02-02 18:00:00 5.3 18 Noroeste 34 Noroeste 0 -- -- 55
2019-02-02 17:00:00 6 15 Noroeste 40 Norte 0 -- -- 47
2019-02-02 16:00:00 5.7 16 Noroeste 35 Norte 0 -- -- 52
2019-02-02 15:00:00 5.6 14 Noroeste 32 Oeste 0 -- -- 57
2019-02-02 14:00:00 5.1 17 Noroeste 33 Oeste 0 -- -- 62
2019-02-02 13:00:00 4.5 22 Noroeste 40 Noroeste 0 -- -- 62
2019-02-02 12:00:00 3.6 18 Oeste 32 Oeste 0 -- -- 71
2019-02-02 11:00:00 2.3 16 Oeste 31 Oeste 0 -- -- 78
2019-02-02 10:00:00 0.8 17 Oeste 28 Oeste 0 -- -- 84
2019-02-02 09:00:00 -0.6 13 Oeste 23 Oeste 0 -- -- 89
2019-02-02 08:00:00 -0.5 12 Oeste 24 Oeste 0 -- -- 87
2019-02-02 07:00:00 -0.3 14 Oeste 23 Oeste 0 -- -- 85
2019-02-02 06:00:00 0 13 Oeste 27 Oeste 0 -- -- 83
2019-02-02 05:00:00 0.1 14 Oeste 31 Oeste 0 -- -- 84
2019-02-02 04:00:00 0.7 21 Oeste 37 Oeste 0 -- -- 85
2019-02-02 03:00:00 1.3 22 Oeste 39 Oeste 0 -- -- 85
2019-02-02 02:00:00 1.8 20 Oeste 39 Oeste 0 -- -- 84
2019-02-02 01:00:00 2.1 22 Oeste 48 Oeste 0 -- -- 86
2019-02-02 00:00:00 2.5 25 Oeste 45 Oeste 0 -- -- 87
2019-02-01 23:00:00 2 18 Oeste 35 Oeste 0 -- -- 91
2019-02-01 22:00:00 2.1 22 Oeste 44 Oeste 0 -- -- 93
2019-02-01 21:00:00 2.3 29 Oeste 47 Oeste 0 -- -- 92
2019-02-01 20:00:00 2.3 27 Oeste 49 Sudoeste 0 -- -- 94
2019-02-01 19:00:00 2.1 30 Sudoeste 61 Sudoeste 0 -- -- 93
2019-02-01 18:00:00 3.1 39 Oeste 59 Oeste 0 -- -- 84
2019-02-01 17:00:00 3.3 30 Oeste 52 Oeste 0 -- -- 87
2019-02-01 16:00:00 1.4 21 Oeste 67 Noroeste 0.6 -- -- 95
2019-02-01 15:00:00 3.5 29 Oeste 63 Sudoeste 1 -- -- 91
2019-02-01 14:00:00 3.1 33 Sudoeste 62 Sudoeste 1.8 -- -- 97
2019-02-01 13:00:00 1.7 18 Sudoeste 48 Sudoeste 2 -- -- 94
2019-02-01 12:00:00 3.2 26 Sudoeste 49 Sudoeste 0.6 -- -- 95
2019-02-01 11:00:00 2.7 30 Sudoeste 54 Sudoeste 1.4 -- -- 94
2019-02-01 10:00:00 3.6 24 Sudoeste 51 Sudoeste 0.2 -- -- 90
2019-02-01 09:00:00 3.8 28 Sudoeste 45 Sudoeste 0 -- -- 86
2019-02-01 08:00:00 3.5 26 Sudoeste 53 Sudoeste 0 -- -- 88
2019-02-01 07:00:00 4 32 Sudoeste 49 Sudoeste 0 -- -- 88
2019-02-01 06:00:00 4.5 24 Oeste 44 Oeste 0 -- -- 91
2019-02-01 05:00:00 4.7 27 Sudoeste 50 Sudoeste 0.2 -- -- 89
2019-02-01 04:00:00 5.2 20 Sudoeste 35 Sudoeste 0 -- -- 90
2019-02-01 03:00:00 5.8 18 Sudoeste 33 Sudoeste -- -- -- 88
2019-02-01 02:00:00 6.2 22 Oeste 41 Sudoeste 0.2 -- -- 89
2019-02-01 01:00:00 7 22 Oeste 40 Oeste 0 -- -- 90
2019-02-01 00:00:00 8.7 24 Oeste 54 Sudoeste 0.4 -- -- 93
2019-01-31 23:00:00 9.4 31 Sudoeste 53 Sudoeste 2.6 -- -- 91
2019-01-31 22:00:00 9.1 17 Sudoeste 36 Sudoeste 1.4 -- -- 90
2019-01-31 21:00:00 9.4 25 Sudoeste 42 Sudoeste 0 -- -- 85
2019-01-31 20:00:00 9.2 22 Sudoeste 39 Sudoeste 0 -- -- 87
2019-01-31 19:00:00 10 23 Sudoeste 51 Sudoeste 0 -- -- 83
2019-01-31 18:00:00 9.9 30 Sudoeste 47 Oeste 0 -- -- 85
2019-01-31 17:00:00 10.6 33 Sudoeste 56 Sudoeste 0 -- -- 84
2019-01-31 16:00:00 11.1 35 Sudoeste 55 Sudoeste 0.2 -- -- 84
2019-01-31 15:00:00 9.8 22 Sudoeste 42 Oeste 1 -- -- 95
2019-01-31 14:00:00 10.2 31 Sudoeste 52 Sudoeste 0.4 -- -- 91
2019-01-31 13:00:00 10.6 27 Sudoeste 48 Sudoeste 0 -- -- 86
2019-01-31 12:00:00 9.8 27 Sudoeste 46 Sudoeste 0 -- -- 91
2019-01-31 11:00:00 9 28 Sudoeste 46 Sudoeste 0.2 -- -- 94
2019-01-31 10:00:00 8 24 Sudoeste 41 Sudoeste 0.2 -- -- 95
2019-01-31 09:00:00 7.9 22 Sudoeste 38 Sudoeste 0 -- -- 92
2019-01-31 08:00:00 7.6 18 Sudoeste 36 Sudoeste 0 -- -- 90
2019-01-31 07:00:00 7.2 26 Sudoeste 50 Sudoeste 0 -- -- 88
2019-01-31 06:00:00 7.2 28 Sudoeste 52 Sudoeste 0 -- -- 89
2019-01-31 05:00:00 8 26 Sudoeste 55 Sudoeste 0 -- -- 91
2019-01-31 04:00:00 8.8 26 Sudoeste 44 Oeste 0.4 -- -- 95
2019-01-31 03:00:00 9 23 Sudoeste 42 Sudoeste 0.2 -- -- 94
2019-01-31 02:00:00 8.6 24 Sudoeste 41 Sudoeste 0 -- -- 93
2019-01-31 01:00:00 8.6 26 Sudoeste 37 Oeste 0 -- -- 95
2019-01-31 00:00:00 8.2 22 Sudoeste 37 Sudoeste 0.4 -- -- 94
2019-01-30 23:00:00 8.1 22 Sudoeste 42 Sudoeste 0 -- -- 93
2019-01-30 22:00:00 7.7 25 Sudoeste 49 Sudoeste 0.4 -- -- 93
2019-01-30 21:00:00 7.2 24 Sudoeste 42 Sudoeste 0.4 -- -- 94
2019-01-30 20:00:00 5.9 17 Sudoeste 31 Sur 0.2 -- -- 93
2019-01-30 19:00:00 5.7 20 Sudoeste 33 Sudoeste 0.2 -- -- 91
2019-01-30 18:00:00 5.5 17 Sudoeste 34 Sudoeste 0 -- -- 89
2019-01-30 17:00:00 6.6 22 Sudoeste 34 Sudoeste 0 -- -- 81
2019-01-30 16:00:00 7.1 18 Sudoeste 37 Sudoeste 0 -- -- 79
2019-01-30 15:00:00 6.3 21 Sudoeste 33 Sudoeste 0 -- -- 80
2019-01-30 14:00:00 5.7 19 Sudoeste 33 Sudoeste 0 -- -- 81
2019-01-30 13:00:00 5.7 18 Sudoeste 29 Sudoeste 0 -- -- 77
2019-01-30 12:00:00 4.7 15 Sudoeste 26 Sudoeste 0 -- -- 82
2019-01-30 11:00:00 3.4 17 Oeste 30 Oeste 0 -- -- 86
2019-01-30 10:00:00 2.6 13 Oeste 21 Sudoeste 0 -- -- 94
2019-01-30 09:00:00 1.4 9 Oeste 18 Sudoeste 0 -- -- 94
2019-01-30 08:00:00 1.6 10 Sudoeste 17 Oeste 0 -- -- 93
2019-01-30 07:00:00 1.8 8 Oeste 13 Sudoeste 0 -- -- 91
2019-01-30 06:00:00 2.4 8 Oeste 22 Oeste 0 -- -- 89
2019-01-30 05:00:00 2.6 13 Oeste 21 Oeste 0 -- -- 89
2019-01-30 04:00:00 2.9 12 Sudoeste 20 Sudoeste 0 -- -- 89
2019-01-30 03:00:00 3.3 10 Sudoeste 17 Sudoeste 0 -- -- 89
2019-01-30 02:00:00 3.3 11 Oeste 21 Sudoeste 0 -- -- 85
2019-01-30 01:00:00 3.2 7 Sudoeste 16 Oeste 0 -- -- 84
2019-01-30 00:00:00 3.3 10 Oeste 22 Oeste 0 -- -- 81
2019-01-29 23:00:00 3.8 13 Oeste 23 Oeste 0 -- -- 78
2019-01-29 22:00:00 4.1 13 Oeste 22 Noroeste 0 -- -- 78
2019-01-29 21:00:00 5.3 9 Oeste 25 Oeste 0 -- -- 73
2019-01-29 20:00:00 6.6 15 Oeste 37 Noroeste 0 -- -- 73
2019-01-29 19:00:00 8.1 17 Oeste 34 Oeste 0 -- -- 85
2019-01-29 18:00:00 8.1 19 Oeste 39 Oeste 0 -- -- 89
2019-01-29 17:00:00 8.2 26 Oeste 45 Oeste 0 -- -- 86
2019-01-29 16:00:00 8 22 Oeste 52 Oeste 0 -- -- 84
2019-01-29 15:00:00 7.8 24 Oeste 46 Oeste 0 -- -- 84
2019-01-29 14:00:00 7.7 26 Oeste 45 Oeste 0 -- -- 85
2019-01-29 13:00:00 7 27 Oeste 43 Sudoeste 0 -- -- 91
2019-01-29 12:00:00 6.2 23 Oeste 41 Oeste 0 -- -- 95
2019-01-29 11:00:00 5.7 26 Sudoeste 38 Oeste 0 -- -- 95
2019-01-29 10:00:00 5 19 Sudoeste 30 Sudoeste 0 -- -- 95
2019-01-29 09:00:00 4 15 Sudoeste 28 Oeste 0 -- -- 95
2019-01-29 08:00:00 3.6 14 Sudoeste 29 Oeste 0 -- -- 94
2019-01-29 07:00:00 3.4 12 Sudoeste 23 Oeste 0 -- -- 95
2019-01-29 06:00:00 3.2 14 Oeste 27 Oeste 0 -- -- 96
2019-01-29 05:00:00 3.5 19 Oeste 32 Oeste 0 -- -- 96
2019-01-29 04:00:00 3.2 14 Oeste 24 Oeste 0 -- -- 96
2019-01-29 03:00:00 2.5 11 Sudoeste 22 Sudoeste 0 -- -- 92
2019-01-29 02:00:00 2.3 8 Sudoeste 17 Sudoeste 0 -- -- 90
2019-01-29 01:00:00 2.1 9 Sudoeste 12 Sudoeste 0 -- -- 87
2019-01-29 00:00:00 2.9 8 Sudoeste 17 Sudoeste 0 -- -- 86
2019-01-28 23:00:00 3.2 6 Sudoeste 14 Oeste 0 -- -- 86
2019-01-28 22:00:00 4.5 10 Oeste 18 Oeste 0 -- -- 83
2019-01-28 21:00:00 5.3 8 Oeste 18 Oeste 0 -- -- 87
2019-01-28 20:00:00 6.3 7 Oeste 21 Oeste 0 -- -- 83
2019-01-28 19:00:00 8 13 Oeste 39 Oeste 0 -- -- 79
2019-01-28 18:00:00 8.7 21 Oeste 47 Oeste 0 -- -- 75
2019-01-28 17:00:00 9.3 22 Oeste 43 Oeste 0 -- -- 74
2019-01-28 16:00:00 9.3 24 Oeste 46 Oeste 0 -- -- 79
2019-01-28 15:00:00 9.4 29 Oeste 47 Oeste 0 -- -- 78
2019-01-28 14:00:00 9.6 28 Oeste 50 Oeste 0 -- -- 73
2019-01-28 13:00:00 9.3 27 Oeste 55 Oeste 0 -- -- 74
2019-01-28 12:00:00 7.4 21 Oeste 40 Oeste 0 -- -- 82
2019-01-28 11:00:00 5.9 20 Oeste 28 Oeste 0 -- -- 88
2019-01-28 10:00:00 4.8 20 Oeste 30 Oeste 0 -- -- 91
2019-01-28 09:00:00 4.1 14 Sudoeste 41 Oeste 0 -- -- 91
2019-01-28 08:00:00 3.5 15 Sudoeste 30 Sudoeste 0 -- -- 91
2019-01-28 07:00:00 2.5 19 Oeste 31 Oeste 0 -- -- 91
2019-01-28 06:00:00 1.5 13 Sudoeste 22 Oeste 0 -- -- 93
2019-01-28 05:00:00 0.8 10 Sudoeste 17 Oeste 0 -- -- 91
2019-01-28 04:00:00 1.1 7 Sudoeste 17 Oeste 0 -- -- 90
2019-01-28 03:00:00 0.8 7 Sudoeste 13 Sudoeste 0 -- -- 89
2019-01-28 02:00:00 0.9 6 Sur 12 Sudoeste 0 -- -- 85
2019-01-28 01:00:00 2 5 Sudoeste 13 Oeste 0 -- -- 82
2019-01-28 00:00:00 2.2 6 Sudoeste 13 Sudoeste 0 -- -- 80
2019-01-27 23:00:00 3.1 6 Oeste 16 Oeste 0 -- -- 79
2019-01-27 22:00:00 4 9 Oeste 23 Oeste 0 -- -- 77
2019-01-27 21:00:00 4.2 8 Noroeste 22 Oeste 0 -- -- 78
2019-01-27 20:00:00 4.7 13 Oeste 22 Oeste 0 -- -- 75
2019-01-27 19:00:00 5.4 8 Oeste 23 Oeste 0 -- -- 73
2019-01-27 18:00:00 7 15 Oeste 30 Noroeste 0 -- -- 65
2019-01-27 17:00:00 7.9 17 Oeste 38 Oeste 0 -- -- 62
2019-01-27 16:00:00 8.3 18 Oeste 34 Oeste 0 -- -- 60
2019-01-27 15:00:00 8.4 16 Noroeste 32 Oeste 0 -- -- 58
2019-01-27 14:00:00 8.1 17 Noroeste 32 Noroeste 0 -- -- 61
2019-01-27 13:00:00 7.4 18 Oeste 29 Oeste 0 -- -- 65
2019-01-27 12:00:00 6.2 16 Oeste 33 Noroeste 0 -- -- 72
2019-01-27 11:00:00 5.1 16 Noroeste 35 Noroeste 0 -- -- 78
2019-01-27 10:00:00 4 14 Oeste 25 Noroeste 0 -- -- 86
2019-01-27 09:00:00 3.5 9 Oeste 24 Oeste 0 -- -- 92
2019-01-27 08:00:00 3.6 10 Oeste 23 Oeste 0 -- -- 93
2019-01-27 07:00:00 3.6 13 Sudoeste 25 Oeste 0 -- -- 91
2019-01-27 06:00:00 3.9 13 Sudoeste 24 Oeste 0 -- -- 90
2019-01-27 05:00:00 3.7 13 Sudoeste 19 Sudoeste 0 -- -- 91
2019-01-27 04:00:00 3.4 12 Sudoeste 20 Sudoeste 0 -- -- 92
2019-01-27 03:00:00 3.9 9 Oeste 18 Oeste 0 -- -- 90
2019-01-27 02:00:00 4.3 11 Sudoeste 19 Sudoeste 0 -- -- 89
2019-01-27 01:00:00 4.3 8 Sudoeste 14 Sudoeste 0 -- -- 84
2019-01-27 00:00:00 5 10 Sudoeste 16 Sudoeste 0 -- -- 80
2019-01-26 23:00:00 4.5 11 Sudoeste 18 Sudoeste 0 -- -- 82
2019-01-26 22:00:00 2.3 6 Sur 10 Sur 0 -- -- 82
2019-01-26 21:00:00 4.2 7 Sur 10 Sur 0 -- -- 77
2019-01-26 20:00:00 6.4 8 Sur 9 Sur 0 -- -- 71
2019-01-26 19:00:00 9.8 7 Sudoeste 18 Oeste 0 -- -- 59
2019-01-26 18:00:00 13.1 12 Oeste 21 Oeste 0 -- -- 47
2019-01-26 17:00:00 14.4 15 Oeste 21 Oeste 0 -- -- 40
2019-01-26 16:00:00 14.6 10 Oeste 21 Oeste 0 -- -- 50
2019-01-26 15:00:00 13.7 9 Oeste 17 Oeste 0 -- -- 52
2019-01-26 14:00:00 12.5 4 Este 8 Nordeste 0 -- -- 62
2019-01-26 13:00:00 9.8 5 Nordeste 9 Este 0 -- -- 72
2019-01-26 12:00:00 6.9 6 Este 11 Nordeste 0 -- -- 82
2019-01-26 11:00:00 3.5 6 Nordeste 12 Este 0 -- -- 92
2019-01-26 10:00:00 -1.6 3 Sudeste 6 Sudeste 0 -- -- 97
2019-01-26 09:00:00 -4.2 3 Sur 6 Sur 0 -- -- 94
2019-01-26 08:00:00 -4.1 5 Sur 8 Sur 0 -- -- 93
2019-01-26 07:00:00 -3.6 0 Calma 5 Sudoeste 0 -- -- 92
2019-01-26 06:00:00 -2.7 3 Sudoeste 7 Oeste 0 -- -- 93
2019-01-26 05:00:00 -2.8 2 Sudoeste 8 Este 0 -- -- 94
2019-01-26 04:00:00 -2.5 3 Sur 8 Sur 0 -- -- 93
2019-01-26 03:00:00 -1.6 4 Sur 8 Oeste 0 -- -- 93
2019-01-26 02:00:00 -1 3 Noroeste 7 Oeste 0 -- -- 93
2019-01-26 01:00:00 -1 2 Nordeste 6 Sur 0 -- -- 93
2019-01-26 00:00:00 -0.6 5 Sur 7 Sur 0 -- -- 92
2019-01-25 23:00:00 -0.2 3 Sur 8 Sur 0 -- -- 90
2019-01-25 22:00:00 0.6 6 Sur 10 Sur 0 -- -- 88
2019-01-25 21:00:00 2 4 Sur 8 Sur 0 -- -- 82
2019-01-25 20:00:00 4.5 5 Sur 9 Sur 0 -- -- 79
2019-01-25 19:00:00 8.7 6 Sur 9 Sur 0 -- -- 67
2019-01-25 18:00:00 12.2 4 Nordeste 13 Norte 0 -- -- 56
2019-01-25 17:00:00 12.8 8 Nordeste 15 Nordeste 0 -- -- 50
2019-01-25 16:00:00 12.9 8 Nordeste 18 Nordeste 0 -- -- 54
2019-01-25 15:00:00 12.7 8 Este 19 Este 0 -- -- 56
2019-01-25 14:00:00 11.7 10 Este 23 Nordeste 0 -- -- 65
2019-01-25 13:00:00 10.4 11 Este 20 Nordeste 0 -- -- 66
2019-01-25 12:00:00 9 11 Este 18 Este 0 -- -- 71
2019-01-25 11:00:00 6.9 10 Este 15 Este 0 -- -- 83
2019-01-25 10:00:00 0.7 0 Calma 8 Sur 0 -- -- 97
2019-01-25 09:00:00 -2.3 5 Sur 8 Sur 0 -- -- 95
2019-01-25 08:00:00 -2 5 Sur 8 Sur 0 -- -- 95
2019-01-25 07:00:00 -1.4 2 Sur 10 Sur 0 -- -- 95
2019-01-25 06:00:00 -1.3 6 Sur 10 Sur 0 -- -- 95
2019-01-25 05:00:00 -1.2 2 Sudeste 7 Sur 0 -- -- 94
2019-01-25 04:00:00 -0.8 6 Sur 8 Sur 0 -- -- 93
2019-01-25 03:00:00 0 4 Sur 6 Sur 0 -- -- 93
2019-01-25 02:00:00 0.6 5 Sur 9 Sur 0 -- -- 93
2019-01-25 01:00:00 1.7 2 Sur 10 Sur 0 -- -- 91
2019-01-25 00:00:00 2.1 9 Sur 10 Sur 0 -- -- 92
2019-01-24 23:00:00 3.3 2 Sur 9 Sur 0 -- -- 88
2019-01-24 22:00:00 4.9 3 Oeste 10 Noroeste 0 -- -- 84
2019-01-24 21:00:00 6.1 5 Norte 10 Norte 0 -- -- 81
2019-01-24 20:00:00 8.5 4 Sudoeste 14 Norte 0 -- -- 73
2019-01-24 19:00:00 11 11 Norte 25 Noroeste 0 -- -- 65
2019-01-24 18:00:00 13.7 13 Norte 32 Norte 0 -- -- 56
2019-01-24 17:00:00 15 16 Norte 38 Norte 0 -- -- 51
2019-01-24 16:00:00 15.2 15 Norte 33 Noroeste 0 -- -- 59
2019-01-24 15:00:00 13.9 18 Noroeste 36 Noroeste 0 -- -- 64
2019-01-24 14:00:00 13.5 19 Noroeste 34 Noroeste 0 -- -- 68
2019-01-24 13:00:00 12.2 18 Noroeste 35 Noroeste 0 -- -- 72
2019-01-24 12:00:00 10.4 19 Noroeste 32 Noroeste 0 -- -- 82
2019-01-24 11:00:00 8.6 18 Noroeste 31 Noroeste 0 -- -- 91
2019-01-24 10:00:00 6.9 12 Noroeste 21 Noroeste 0 -- -- 95
2019-01-24 09:00:00 6.8 12 Noroeste 24 Noroeste 0 -- -- 95
2019-01-24 08:00:00 7.2 12 Noroeste 30 Oeste 0 -- -- 94
2019-01-24 07:00:00 6.8 14 Noroeste 30 Noroeste 0 -- -- 95
2019-01-24 06:00:00 5.4 9 Oeste 17 Oeste 0 -- -- 96
2019-01-24 05:00:00 6 6 Noroeste 19 Oeste 0 -- -- 94
2019-01-24 04:00:00 6 9 Oeste 22 Oeste 0 -- -- 95
2019-01-24 03:00:00 6.1 10 Oeste 26 Oeste 0 -- -- 95
2019-01-24 02:00:00 5.9 11 Oeste 22 Oeste 0 -- -- 95
2019-01-24 01:00:00 6.3 14 Oeste 26 Oeste 0 -- -- 93
2019-01-24 00:00:00 6.6 13 Oeste 27 Oeste 0 -- -- 92